Alajuela, Costa Rica
Current Conditions -  °F | °C
As of 10:00 AM on Thursday 18 Dec 2014 (Local Time) from MROC Reporting Station
Scattered Clouds Scattered Clouds  
Wind Chill: 79°   Ceiling: Unl
Heat Index: 80°   Visibility: 6mi
Dew Point: 63°   Wind: 8mph
Humidity: 57%   Direction: 100°E
Pressure: 30.07"   Gusts: NA
Location:  10.5°N, 84.5°W
Report Text: MROC 181600Z 10007KT 9999 FEW030 SCT070 26/17 A3007 NOSIG
Loading
Personal Weather Stations






























Interactive Weather Map New forecast layout! Learn more

10-Day Weather Forecast

Advertisements
Track Severe Weather on mobile